Time;durP1;ratioP1;P1;durP2;ratioP2;P2;SDS_P1;SDS_P2;PMS_P1;PMS_P2;Temp;Humidity;BMP_temperature;BMP_pressure;BME280_temperature;BME280_humidity;BME280_pressure;Samples;Min_cycle;Max_cycle;Signal;HPM_P1;HPM_P2
2022/06/28 00:02:23;;;;;;;1.25;1.02;;;;;;;12.80;100.00;99065.34;5043878;28;20021;-72
2022/06/28 00:04:49;;;;;;;7.57;1.00;;;;;;;12.77;100.00;99060.13;5043911;28;20071;-72
2022/06/28 00:07:15;;;;;;;8.55;0.88;;;;;;;12.77;100.00;99054.84;5043932;28;20025;-72
2022/06/28 00:09:40;;;;;;;8.07;0.77;;;;;;;12.73;100.00;99057.56;5043836;28;20033;-72
2022/06/28 00:12:06;;;;;;;6.30;1.13;;;;;;;12.67;100.00;99058.59;5043779;28;20249;-72
2022/06/28 00:17:15;;;;;;;5.53;1.17;;;;;;;12.56;100.00;99052.63;5043809;28;20045;-72
2022/06/28 00:19:40;;;;;;;4.30;0.80;;;;;;;12.52;100.00;99032.50;5047318;28;20287;-72
2022/06/28 00:22:06;;;;;;;1.42;1.00;;;;;;;12.59;100.00;99036.72;5047753;28;20317;-72
2022/06/28 00:24:31;;;;;;;25.25;1.25;;;;;;;12.59;100.00;99033.22;5047616;28;20052;-72
2022/06/28 00:26:57;;;;;;;44.95;1.85;;;;;;;12.62;100.00;99030.50;5047620;28;20021;-72
2022/06/28 00:29:22;;;;;;;19.67;1.38;;;;;;;12.64;100.00;99042.81;5047596;28;20021;-72
2022/06/28 00:31:48;;;;;;;0.98;0.85;;;;;;;12.62;100.00;99039.31;5047567;28;20036;-71
2022/06/28 00:34:14;;;;;;;16.70;1.30;;;;;;;12.48;100.00;99030.81;5048704;28;20017;-72
2022/06/28 00:36:39;;;;;;;9.98;1.23;;;;;;;12.41;100.00;99029.19;5047467;28;20029;-72
2022/06/28 00:39:05;;;;;;;30.75;1.58;;;;;;;12.35;100.00;99034.63;5047416;28;20103;-72
2022/06/28 00:41:31;;;;;;;3.35;0.80;;;;;;;12.43;100.00;99037.94;5047334;28;20025;-72
2022/06/28 00:43:57;;;;;;;13.05;1.08;;;;;;;12.37;100.00;99038.06;5047374;28;20108;-72
2022/06/28 00:46:22;;;;;;;5.78;0.80;;;;;;;12.42;100.00;99030.94;5047268;28;20043;-72
2022/06/28 00:48:48;;;;;;;18.77;1.13;;;;;;;12.46;100.00;99042.28;5047246;28;20025;-72
2022/06/28 00:51:13;;;;;;;20.13;1.17;;;;;;;12.50;100.00;99044.00;5047315;28;20088;-72
2022/06/28 00:53:39;;;;;;;1.80;1.05;;;;;;;12.49;100.00;99032.56;5047178;28;20052;-72
2022/06/28 00:56:05;;;;;;;28.98;1.38;;;;;;;12.52;100.00;99036.88;5047149;28;20093;-72
2022/06/28 00:58:30;;;;;;;9.32;1.80;;;;;;;12.58;100.00;99037.66;5047094;28;20092;-72
2022/06/28 01:00:56;;;;;;;3.60;0.68;;;;;;;12.55;100.00;99037.72;5046940;28;20025;-72
2022/06/28 01:03:23;;;;;;;41.55;1.92;;;;;;;12.55;100.00;99042.09;5047053;28;20044;-72
2022/06/28 01:05:50;;;;;;;13.18;1.20;;;;;;;12.57;100.00;99040.31;5048200;28;20025;-72
2022/06/28 01:08:16;;;;;;;15.40;1.23;;;;;;;12.59;100.00;99033.22;5046957;28;20034;-72
2022/06/28 01:10:42;;;;;;;2.38;0.73;;;;;;;12.54;100.00;99035.97;5046879;28;20025;-72
2022/06/28 01:13:09;;;;;;;0.80;0.60;;;;;;;12.57;100.00;99046.44;5046845;28;20328;-72
2022/06/28 01:15:36;;;;;;;10.52;0.80;;;;;;;12.57;100.00;99041.16;5046859;28;20029;-72
2022/06/28 01:18:03;;;;;;;11.15;0.90;;;;;;;12.58;100.00;99042.03;5046732;28;20021;-72
2022/06/28 01:20:29;;;;;;;6.05;0.95;;;;;;;12.60;100.00;99034.97;5046677;28;20032;-72
2022/06/28 01:22:54;;;;;;;24.05;0.82;;;;;;;12.55;100.00;99035.06;5046695;28;20029;-72
2022/06/28 01:25:22;;;;;;;5.35;0.70;;;;;;;12.56;100.00;99034.16;5046586;28;20041;-72
2022/06/28 01:27:47;;;;;;;8.23;1.00;;;;;;;12.55;100.00;99031.53;5046491;28;20202;-72
2022/06/28 01:30:13;;;;;;;20.98;1.13;;;;;;;12.51;100.00;99036.03;5046565;28;20021;-72
2022/06/28 01:32:40;;;;;;;11.65;1.00;;;;;;;12.52;100.00;99043.03;5046507;28;20317;-72
2022/06/28 01:35:06;;;;;;;5.07;0.95;;;;;;;12.42;100.00;99041.50;5062404;28;20304;-72
2022/06/28 01:37:32;;;;;;;3.88;0.63;;;;;;;12.46;100.00;99045.81;5055553;28;20104;-72
2022/06/28 01:39:58;;;;;;;15.10;0.90;;;;;;;12.48;100.00;99046.66;5045127;28;20032;-72
2022/06/28 01:42:23;;;;;;;22.75;0.80;;;;;;;12.45;100.00;99045.84;5046313;28;20025;-72
2022/06/28 01:44:50;;;;;;;5.15;0.88;;;;;;;12.45;100.00;99046.72;5046258;28;20025;-72
2022/06/28 01:47:17;;;;;;;20.08;1.05;;;;;;;12.47;100.00;99047.53;5046173;28;20028;-72
2022/06/28 01:49:43;;;;;;;4.95;0.70;;;;;;;12.41;100.00;99047.66;5046163;28;20032;-72
2022/06/28 01:52:09;;;;;;;0.73;0.43;;;;;;;12.37;100.00;99039.88;5046114;28;20370;-72
2022/06/28 01:54:34;;;;;;;1.15;0.65;;;;;;;12.35;100.00;99037.25;5047205;28;20047;-72
2022/06/28 01:57:01;;;;;;;7.93;0.60;;;;;;;12.30;100.00;99039.09;5046068;28;20025;-72
2022/06/28 01:59:27;;;;;;;15.50;0.90;;;;;;;12.18;100.00;99027.94;5045927;28;20097;-72
2022/06/28 02:01:53;;;;;;;0.40;0.40;;;;;;;12.15;100.00;99034.09;5045925;28;20029;-72
2022/06/28 02:04:21;;;;;;;13.57;0.65;;;;;;;12.13;100.00;99035.06;5045963;28;20021;-72
2022/06/28 02:06:46;;;;;;;5.05;0.73;;;;;;;12.02;100.00;99021.22;5045828;28;20029;-72
2022/06/28 02:09:11;;;;;;;12.15;0.90;;;;;;;11.99;100.00;99022.13;5045915;28;20028;-72
2022/06/28 02:11:37;;;;;;;0.50;0.47;;;;;;;12.03;100.00;99025.56;5045948;28;20185;-72
2022/06/28 02:14:02;;;;;;;0.50;0.50;;;;;;;12.04;100.00;99024.66;5045710;28;20340;-72
2022/06/28 02:16:28;;;;;;;2.38;0.40;;;;;;;12.02;100.00;99024.69;5045639;28;20343;-72
2022/06/28 02:18:53;;;;;;;14.48;0.70;;;;;;;12.02;100.00;99024.69;5045638;28;20022;-72
2022/06/28 02:21:18;;;;;;;4.25;0.70;;;;;;;12.01;100.00;99030.88;5052323;28;20096;-72
2022/06/28 02:23:44;;;;;;;4.18;0.60;;;;;;;12.04;100.00;99032.56;5065379;28;20406;-72
2022/06/28 02:26:11;;;;;;;5.50;0.55;;;;;;;12.04;100.00;99033.47;5065440;28;20051;-72
2022/06/28 02:28:37;;;;;;;2.15;0.80;;;;;;;12.03;100.00;99037.00;5065325;28;20051;-72
2022/06/28 02:31:11;;;;;;;0.60;0.50;;;;;;;12.02;100.00;99035.25;5065373;28;20031;-72
2022/06/28 02:33:37;;;;;;;4.10;0.60;;;;;;;11.99;100.00;99035.31;5065279;28;20220;-72
2022/06/28 02:41:32;;;;;;;10.77;1.00;;;;;;;12.10;100.00;99053.56;5064582;28;20224;-72
2022/06/28 02:43:57;;;;;;;0.70;0.50;;;;;;;12.12;100.00;99052.63;5065162;28;20024;-72
2022/06/28 02:46:23;;;;;;;19.38;1.20;;;;;;;12.08;100.00;99045.69;5058969;28;20025;-72
2022/06/28 02:48:48;;;;;;;1.50;0.70;;;;;;;12.06;100.00;99041.34;5045188;28;20021;-72
2022/06/28 02:51:14;;;;;;;13.73;0.98;;;;;;;12.03;100.00;99052.84;5044998;28;20021;-72
2022/06/28 02:53:39;;;;;;;4.88;0.50;;;;;;;12.03;100.00;99051.97;5044960;28;20022;-72
2022/06/28 02:56:05;;;;;;;21.00;0.85;;;;;;;11.96;100.00;99050.34;5044927;28;20071;-72
2022/06/28 02:58:30;;;;;;;6.43;0.40;;;;;;;12.01;100.00;99049.34;5044878;28;20032;-72
2022/06/28 03:00:56;;;;;;;16.65;0.52;;;;;;;11.99;100.00;99051.13;5044771;28;20024;-72
2022/06/28 03:03:21;;;;;;;14.90;0.60;;;;;;;11.81;100.00;99055.88;5044733;28;20057;-72
2022/06/28 03:05:47;;;;;;;32.65;0.80;;;;;;;11.82;100.00;99058.50;5044814;28;20025;-72
2022/06/28 03:08:12;;;;;;;7.38;0.85;;;;;;;11.87;100.00;99067.16;5044745;28;20018;-72
2022/06/28 03:10:38;;;;;;;11.00;0.52;;;;;;;11.91;100.00;99065.38;5044670;28;20036;-72
2022/06/28 03:13:03;;;;;;;0.20;0.20;;;;;;;11.96;100.00;99072.28;5044598;28;20041;-72
2022/06/28 03:15:29;;;;;;;5.47;0.40;;;;;;;11.98;100.00;99069.63;5058847;28;20025;-72
2022/06/28 03:17:54;;;;;;;4.05;0.45;;;;;;;11.92;100.00;99070.59;5064499;28;20052;-72
2022/06/28 03:20:20;;;;;;;3.38;0.55;;;;;;;11.89;100.00;99064.50;5064406;28;20028;-72
2022/06/28 03:22:46;;;;;;;26.45;0.68;;;;;;;11.79;100.00;99069.09;5064480;28;20020;-72
2022/06/28 03:25:11;;;;;;;6.90;0.30;;;;;;;11.80;100.00;99069.97;5064222;28;20032;-72
2022/06/28 03:27:36;;;;;;;20.85;0.60;;;;;;;11.80;100.00;99070.81;5064235;28;20236;-72
2022/06/28 03:30:04;;;;;;;3.78;0.43;;;;;;;11.79;100.00;99084.03;5064275;28;20092;-72
2022/06/28 03:32:29;;;;;;;10.65;0.80;;;;;;;11.78;100.00;99088.44;5064176;28;20031;-72
2022/06/28 03:34:55;;;;;;;4.20;0.30;;;;;;;11.71;100.00;99081.50;5058579;28;20029;-72
2022/06/28 03:37:21;;;;;;;2.97;0.60;;;;;;;11.65;100.00;99086.03;5053316;28;20378;-72
2022/06/28 03:39:46;;;;;;;3.65;0.30;;;;;;;11.61;100.00;99095.72;5064013;28;20040;-72
2022/06/28 03:42:11;;;;;;;6.22;0.60;;;;;;;11.63;100.00;99093.97;5064230;28;20027;-72
2022/06/28 03:44:37;;;;;;;6.28;0.65;;;;;;;11.66;100.00;99099.19;5064056;28;20036;-72
2022/06/28 03:47:03;;;;;;;21.75;0.80;;;;;;;11.61;100.00;99101.00;5062853;28;20020;-73
2022/06/28 03:49:28;;;;;;;26.10;0.88;;;;;;;11.62;100.00;99097.50;5062330;28;20313;-73
2022/06/28 03:51:54;;;;;;;10.82;0.60;;;;;;;11.58;100.00;99105.47;5062819;28;20020;-73
2022/06/28 03:54:19;;;;;;;22.95;0.60;;;;;;;11.58;100.00;99098.41;5060814;28;20032;-73
2022/06/28 03:56:45;;;;;;;17.67;0.60;;;;;;;11.68;100.00;99107.94;5062986;28;20020;-72
2022/06/28 03:59:10;;;;;;;15.40;0.60;;;;;;;11.74;100.00;99109.63;5062989;28;20442;-72
2022/06/28 04:01:35;;;;;;;9.43;0.35;;;;;;;11.75;100.00;99104.34;5061265;28;20021;-72
2022/06/28 04:04:01;;;;;;;5.50;0.40;;;;;;;11.80;100.00;99109.53;5062957;28;20033;-73
2022/06/28 04:06:26;;;;;;;11.77;0.55;;;;;;;11.83;100.00;99118.25;5061249;28;20033;-73
2022/06/28 04:08:51;;;;;;;23.73;0.60;;;;;;;11.82;100.00;99105.06;5053560;28;20224;-72
2022/06/28 04:11:17;;;;;;;0.10;0.10;;;;;;;11.95;100.00;99112.75;5058497;28;20044;-72
2022/06/28 04:13:48;;;;;;;9.93;0.40;;;;;;;12.07;100.00;99112.56;5062743;28;20017;-72
2022/06/28 04:16:14;;;;;;;2.22;0.40;;;;;;;12.13;100.00;99112.44;5062642;28;20316;-72
2022/06/28 04:18:41;;;;;;;7.05;0.50;;;;;;;12.24;100.00;99118.38;5063740;28;20021;-72
2022/06/28 04:21:09;;;;;;;2.65;0.40;;;;;;;12.30;100.00;99114.75;5063612;28;20059;-72
2022/06/28 04:23:34;;;;;;;2.28;0.30;;;;;;;12.30;100.00;99118.28;5062339;28;20028;-73
2022/06/28 04:26:00;;;;;;;9.30;0.60;;;;;;;12.23;100.00;99108.75;5063663;28;20067;-72
2022/06/28 04:28:25;;;;;;;21.85;0.70;;;;;;;12.34;100.00;99117.31;5063527;28;20025;-72
2022/06/28 04:30:51;;;;;;;18.08;0.70;;;;;;;12.36;100.00;99115.53;5063689;28;20017;-72
2022/06/28 04:33:16;;;;;;;17.98;0.55;;;;;;;12.25;100.00;99114.84;5063663;28;20021;-72
2022/06/28 04:35:41;;;;;;;0.20;0.20;;;;;;;12.38;100.00;99113.75;5063859;28;20029;-72
2022/06/28 04:38:07;;;;;;;1.80;0.32;;;;;;;12.47;100.00;99113.53;5063584;28;20251;-72
2022/06/28 04:40:32;;;;;;;15.23;0.55;;;;;;;12.60;100.00;99109.75;5063453;28;20088;-72
2022/06/28 04:42:58;;;;;;;32.22;0.88;;;;;;;12.63;100.00;99114.97;5063472;28;20025;-72
2022/06/28 04:45:23;;;;;;;9.82;0.68;;;;;;;12.88;100.00;99121.50;5063518;28;20021;-72
2022/06/28 04:47:48;;;;;;;0.47;0.40;;;;;;;13.18;100.00;99119.16;5063499;28;20071;-72
2022/06/28 04:50:14;;;;;;;12.45;0.63;;;;;;;13.20;100.00;99122.63;5063425;28;20017;-73
2022/06/28 04:52:39;;;;;;;2.33;0.40;;;;;;;13.21;100.00;99122.59;5063365;28;20028;-72
2022/06/28 04:55:06;;;;;;;0.28;0.28;;;;;;;13.32;100.00;99127.66;5063432;28;20223;-72
2022/06/28 04:57:31;;;;;;;16.52;0.63;;;;;;;13.36;100.00;99126.69;5063393;28;20048;-72
2022/06/28 04:59:56;;;;;;;16.20;0.60;;;;;;;13.39;100.00;99123.97;5063313;28;20024;-72
2022/06/28 05:02:22;;;;;;;1.05;0.50;;;;;;;13.61;100.00;99115.50;5063367;28;20067;-72
2022/06/28 05:04:47;;;;;;;3.63;0.57;;;;;;;14.14;100.00;99111.53;5065273;28;20028;-72
2022/06/28 05:07:13;;;;;;;2.58;0.50;;;;;;;14.29;100.00;99103.19;5067050;28;20036;-72
2022/06/28 05:09:40;;;;;;;1.05;0.60;;;;;;;14.38;100.00;99105.59;5066957;28;20055;-72
2022/06/28 05:12:06;;;;;;;2.92;0.43;;;;;;;14.32;100.00;99111.06;5066921;28;20025;-73
2022/06/28 05:14:31;;;;;;;3.13;0.55;;;;;;;14.50;100.00;99115.88;5066850;28;20087;-73
2022/06/28 05:16:57;;;;;;;0.60;0.60;;;;;;;14.69;100.00;99111.81;5066825;28;20025;-72
2022/06/28 05:19:22;;;;;;;10.88;0.50;;;;;;;14.73;100.00;99106.38;5065583;28;20331;-73
2022/06/28 05:21:47;;;;;;;4.35;0.40;;;;;;;14.69;100.00;99106.50;5066647;28;20044;-73
2022/06/28 05:24:13;;;;;;;3.03;0.63;;;;;;;14.81;100.00;99112.31;5066553;28;20044;-73
2022/06/28 05:26:38;;;;;;;0.90;0.68;;;;;;;15.65;98.82;99116.84;5066605;28;20324;-73
2022/06/28 05:29:03;;;;;;;0.60;0.50;;;;;;;16.62;94.13;99112.66;5066485;28;20021;-73
2022/06/28 05:31:29;;;;;;;0.47;0.47;;;;;;;17.65;88.81;99103.41;5066515;28;20025;-73
2022/06/28 05:33:55;;;;;;;2.67;0.55;;;;;;;19.19;82.56;99083.25;5066555;28;20025;-73
2022/06/28 05:36:20;;;;;;;0.80;0.57;;;;;;;20.41;77.31;99082.50;5066379;28;20045;-73
2022/06/28 05:38:46;;;;;;;0.52;0.50;;;;;;;21.25;71.67;99080.66;5066453;28;20028;-72
2022/06/28 05:41:11;;;;;;;0.68;0.50;;;;;;;21.71;72.79;99086.09;5065130;28;20097;-72
2022/06/28 05:43:36;;;;;;;0.40;0.40;;;;;;;22.30;67.04;99083.53;5066304;28;20020;-73
2022/06/28 05:46:02;;;;;;;0.65;0.52;;;;;;;22.47;67.87;99086.06;5066288;28;20032;-73
2022/06/28 05:48:27;;;;;;;0.43;0.43;;;;;;;22.86;64.69;99083.66;5066229;28;20127;-73
2022/06/28 05:50:53;;;;;;;0.88;0.73;;;;;;;22.95;66.62;99083.09;5066109;28;20024;-73
2022/06/28 05:53:19;;;;;;;0.47;0.47;;;;;;;23.02;64.71;99068.34;5066351;28;20209;-73
2022/06/28 05:55:44;;;;;;;0.50;0.50;;;;;;;23.26;64.29;99065.00;5066113;28;20020;-73
2022/06/28 05:58:09;;;;;;;0.80;0.60;;;;;;;23.52;64.42;99066.03;5066040;28;20423;-73
2022/06/28 06:00:37;;;;;;;1.00;0.45;;;;;;;23.58;65.51;99062.94;5065865;28;20025;-73
2022/06/28 06:03:04;;;;;;;1.50;1.00;;;;;;;23.74;64.82;99058.28;5065960;28;20090;-73
2022/06/28 06:05:29;;;;;;;0.57;0.57;;;;;;;24.75;62.02;99064.84;5064693;28;20057;-73
2022/06/28 06:07:54;;;;;;;1.48;0.80;;;;;;;25.37;61.18;99071.19;5065850;28;20273;-73
2022/06/28 06:10:20;;;;;;;5.63;0.95;;;;;;;25.60;60.25;99052.38;5065853;28;20221;-72
2022/06/28 06:12:45;;;;;;;3.70;0.90;;;;;;;24.84;60.29;99054.28;5065727;28;20083;-72
2022/06/28 06:15:11;;;;;;;0.60;0.60;;;;;;;24.89;63.81;99064.72;5065226;28;20331;-72
2022/06/28 06:17:37;;;;;;;2.40;1.10;;;;;;;24.80;58.26;99049.22;5065247;28;20098;-72
2022/06/28 06:20:03;;;;;;;3.30;1.23;;;;;;;25.68;62.21;99051.78;5065539;28;20025;-72
2022/06/28 06:22:29;;;;;;;1.30;0.80;;;;;;;26.42;59.40;99057.84;5065511;28;20024;-72
2022/06/28 06:24:55;;;;;;;1.38;0.90;;;;;;;27.26;55.48;99059.25;5065299;28;20057;-72
2022/06/28 06:27:20;;;;;;;1.95;0.98;;;;;;;26.39;56.07;99044.56;5065420;28;20048;-72
2022/06/28 06:29:46;;;;;;;1.25;1.00;;;;;;;27.07;55.86;99054.44;5065407;28;20020;-73
2022/06/28 06:32:11;;;;;;;3.83;1.20;;;;;;;26.77;55.67;99047.88;5065368;28;20025;-73
2022/06/28 06:34:36;;;;;;;5.80;1.08;;;;;;;25.94;56.42;99048.03;5065303;28;20028;-72
2022/06/28 06:37:02;;;;;;;5.53;1.23;;;;;;;26.96;58.03;99045.47;5065301;28;20084;-72
2022/06/28 06:39:27;;;;;;;1.98;1.08;;;;;;;27.10;56.03;99039.81;5065184;28;20027;-72
2022/06/28 06:41:53;;;;;;;1.17;0.98;;;;;;;27.13;57.19;99035.03;5065091;28;20032;-72
2022/06/28 06:44:18;;;;;;;1.55;1.10;;;;;;;27.77;53.71;99035.22;5065138;28;20021;-72
2022/06/28 06:46:44;;;;;;;2.20;1.45;;;;;;;27.58;52.67;99035.88;5065101;28;20027;-72
2022/06/28 06:49:09;;;;;;;1.13;1.00;;;;;;;26.99;53.69;99029.00;5065037;28;20025;-73
2022/06/28 06:51:35;;;;;;;4.10;0.90;;;;;;;26.77;53.89;99028.97;5064986;28;20082;-72
2022/06/28 06:54:00;;;;;;;1.80;0.90;;;;;;;27.45;53.76;99032.44;5064921;28;20025;-72
2022/06/28 06:56:26;;;;;;;3.15;0.98;;;;;;;27.44;54.65;99025.31;5064947;28;20032;-72
2022/06/28 06:58:51;;;;;;;2.95;1.02;;;;;;;27.91;52.55;99018.72;5064817;28;20021;-72
2022/06/28 07:01:17;;;;;;;6.68;1.33;;;;;;;27.60;53.42;99020.38;5064857;28;20025;-72
2022/06/28 07:03:44;;;;;;;1.75;1.20;;;;;;;28.02;55.00;99029.50;5065049;28;20040;-72
2022/06/28 07:06:13;;;;;;;4.82;1.35;;;;;;;27.77;51.82;99022.53;5064707;28;20024;-72
2022/06/28 07:08:39;;;;;;;2.10;1.10;;;;;;;26.99;54.34;99018.19;5064668;28;20343;-72
2022/06/28 07:11:05;;;;;;;1.48;0.80;;;;;;;28.19;51.15;99024.38;5064580;28;20079;-72
2022/06/28 07:13:30;;;;;;;2.38;0.98;;;;;;;28.04;52.76;99025.69;5064879;28;20051;-72
2022/06/28 07:15:56;;;;;;;3.75;0.90;;;;;;;28.48;50.45;99024.66;5064566;28;20024;-72
2022/06/28 07:18:22;;;;;;;1.33;0.80;;;;;;;29.19;49.06;99021.94;5064569;28;20062;-72
2022/06/28 07:20:47;;;;;;;3.30;1.15;;;;;;;28.86;49.17;99020.31;5064366;28;20021;-72
2022/06/28 07:23:12;;;;;;;2.28;1.05;;;;;;;29.09;50.76;99021.94;5064537;28;20036;-72
2022/06/28 07:25:38;;;;;;;6.20;1.20;;;;;;;27.30;49.55;99011.22;5064242;28;20032;-72
2022/06/28 07:28:04;;;;;;;1.10;0.90;;;;;;;27.27;50.49;99016.88;5064206;28;20025;-72
2022/06/28 07:30:29;;;;;;;1.88;0.93;;;;;;;26.21;50.98;99011.75;5064310;28;20040;-72
2022/06/28 07:32:54;;;;;;;3.33;1.02;;;;;;;26.76;50.62;99022.72;5064289;28;20320;-72
2022/06/28 07:35:24;;;;;;;4.22;0.98;;;;;;;27.19;48.10;99010.22;5064259;28;20374;-72
2022/06/28 07:37:50;;;;;;;4.25;1.15;;;;;;;26.20;49.11;99011.88;5064163;28;20100;-72
2022/06/28 07:40:15;;;;;;;1.77;0.98;;;;;;;25.99;51.06;99016.19;5064182;28;20032;-72
2022/06/28 07:42:41;;;;;;;3.25;1.00;;;;;;;27.28;53.16;99020.28;5064134;28;20024;-72
2022/06/28 07:45:07;;;;;;;1.10;0.98;;;;;;;27.19;48.54;99009.34;5064064;28;20067;-72
2022/06/28 07:47:32;;;;;;;7.72;1.13;;;;;;;25.68;50.04;99014.91;5064049;28;20040;-72
2022/06/28 07:52:41;;;;;;;1.77;1.02;;;;;;;27.07;49.68;99005.78;5064004;28;20075;-72
2022/06/28 07:55:09;;;;;;;2.75;1.02;;;;;;;27.02;48.51;99001.75;5063988;28;20316;-72
2022/06/28 07:57:35;;;;;;;2.45;0.90;;;;;;;26.46;47.52;98986.41;5063921;28;20029;-72
2022/06/28 08:00:00;;;;;;;2.00;0.93;;;;;;;27.01;46.43;98989.19;5063850;28;20021;-72
2022/06/28 08:02:26;;;;;;;1.52;1.08;;;;;;;27.38;47.36;98990.69;5063850;28;20031;-72
2022/06/28 08:04:51;;;;;;;1.13;0.80;;;;;;;26.69;46.32;98993.59;5063835;28;20020;-72
2022/06/28 08:07:16;;;;;;;2.67;0.90;;;;;;;26.86;49.73;98990.44;5063952;28;20028;-72
2022/06/28 08:09:42;;;;;;;2.40;0.93;;;;;;;26.29;44.74;98987.72;5063809;28;20032;-72
2022/06/28 08:12:07;;;;;;;3.17;1.00;;;;;;;26.25;46.55;98998.88;5063788;28;20021;-71
2022/06/28 08:14:33;;;;;;;2.03;0.90;;;;;;;26.14;45.77;99001.53;5063747;28;20269;-71
2022/06/28 08:16:58;;;;;;;1.38;0.88;;;;;;;26.37;46.55;99014.13;5063729;28;20063;-71
2022/06/28 08:19:24;;;;;;;1.75;0.90;;;;;;;25.84;46.19;99001.16;5063756;28;20032;-71
2022/06/28 08:21:50;;;;;;;2.78;0.70;;;;;;;25.64;47.08;99008.03;5063564;28;20021;-71
2022/06/28 08:24:16;;;;;;;3.67;1.10;;;;;;;26.21;45.34;98997.38;5063650;28;20332;-71
2022/06/28 08:26:44;;;;;;;2.08;0.75;;;;;;;26.62;46.16;99003.16;5063583;28;20024;-71
2022/06/28 08:29:15;;;;;;;1.63;0.73;;;;;;;27.27;43.06;98998.78;5063626;28;20028;-71
2022/06/28 08:31:41;;;;;;;2.67;0.80;;;;;;;27.27;42.14;98991.53;5063625;28;20013;-71
2022/06/28 08:34:07;;;;;;;1.52;0.82;;;;;;;25.72;46.57;98992.13;5063577;28;20633;-71
2022/06/28 08:36:33;;;;;;;2.58;0.90;;;;;;;26.20;45.54;98984.88;5063588;28;20048;-71
2022/06/28 08:38:59;;;;;;;5.75;1.10;;;;;;;26.52;46.09;98991.34;5064363;28;20253;-72
2022/06/28 08:41:27;;;;;;;4.28;0.85;;;;;;;25.80;45.90;98978.94;5067672;28;20088;-72
2022/06/28 08:43:54;;;;;;;3.85;1.00;;;;;;;25.98;46.56;98990.19;5067437;28;20035;-72
2022/06/28 08:46:21;;;;;;;1.38;0.90;;;;;;;26.82;44.54;98987.13;5067486;28;20265;-72
2022/06/28 08:48:58;;;;;;;2.45;0.90;;;;;;;26.37;44.06;98982.59;5067395;28;20035;-71
2022/06/28 08:51:30;;;;;;;1.50;0.82;;;;;;;26.43;44.40;98975.84;5067349;28;20079;-71
2022/06/28 08:53:59;;;;;;;2.70;1.10;;;;;;;27.29;44.64;98983.31;5067235;28;20236;-71
2022/06/28 08:56:25;;;;;;;2.45;0.70;;;;;;;26.60;42.64;98972.69;5067266;28;20017;-72
2022/06/28 08:58:51;;;;;;;3.88;0.90;;;;;;;26.54;43.07;98959.69;5067097;28;20339;-72
2022/06/28 09:01:16;;;;;;;3.88;1.15;;;;;;;27.00;43.02;98968.56;5067276;28;20028;-72
2022/06/28 09:03:42;;;;;;;3.25;0.77;;;;;;;27.65;44.93;98972.16;5067053;28;20025;-72
2022/06/28 09:06:07;;;;;;;1.77;0.75;;;;;;;28.02;41.53;98962.72;5067005;28;20032;-72
2022/06/28 09:08:33;;;;;;;1.15;0.70;;;;;;;28.27;42.17;98951.50;5067032;28;20025;-72
2022/06/28 09:10:58;;;;;;;3.83;0.80;;;;;;;28.71;41.14;98940.41;5066901;28;20017;-72
2022/06/28 09:13:24;;;;;;;1.02;0.70;;;;;;;28.22;41.59;98940.19;5066900;28;20058;-71
2022/06/28 09:15:55;;;;;;;2.15;0.90;;;;;;;28.51;42.58;98938.56;5066886;28;20079;-71
2022/06/28 09:18:24;;;;;;;1.98;0.85;;;;;;;28.77;42.51;98933.56;5066794;28;20220;-72
2022/06/28 09:20:52;;;;;;;2.33;0.80;;;;;;;29.24;40.01;98933.75;5066916;28;20025;-72
2022/06/28 09:23:27;;;;;;;2.97;1.00;;;;;;;29.04;42.31;98923.88;5066791;28;20021;-72
2022/06/28 09:26:02;;;;;;;2.47;1.13;;;;;;;28.72;42.47;98931.28;5066557;28;20110;-72
2022/06/28 09:28:29;;;;;;;1.92;1.10;;;;;;;28.41;43.20;98915.94;5066555;28;20028;-72
2022/06/28 09:31:25;;;;;;;2.42;0.80;;;;;;;29.80;42.17;98914.19;5066529;28;20067;-72
2022/06/28 09:34:02;;;;;;;2.53;0.90;;;;;;;27.86;42.62;98924.41;5066521;28;20049;-72
2022/06/28 09:36:36;;;;;;;1.70;0.90;;;;;;;28.27;42.80;98921.72;5066471;28;20025;-71
2022/06/28 09:39:16;;;;;;;5.45;1.00;;;;;;;28.89;41.80;98921.66;5066408;28;20033;-71
2022/06/28 09:41:47;;;;;;;1.65;0.85;;;;;;;28.76;42.59;98916.44;5066524;28;20343;-71
2022/06/28 09:44:15;;;;;;;1.55;0.80;;;;;;;29.32;41.86;98914.09;5066355;28;20027;-72
2022/06/28 09:46:41;;;;;;;1.70;0.90;;;;;;;29.71;42.33;98909.63;5066259;28;20228;-72
2022/06/28 09:49:07;;;;;;;1.73;0.75;;;;;;;29.27;40.13;98907.38;5066233;28;20032;-72
2022/06/28 09:51:34;;;;;;;2.25;1.10;;;;;;;29.58;41.12;98914.44;5064827;28;20080;-72
2022/06/28 09:54:03;;;;;;;1.50;0.90;;;;;;;29.54;40.94;98897.56;5066014;28;20075;-72
2022/06/28 09:56:42;;;;;;;2.80;0.90;;;;;;;29.43;40.62;98895.00;5066023;28;20017;-72
2022/06/28 09:59:10;;;;;;;4.05;1.65;;;;;;;29.05;40.61;98894.91;5066005;28;20036;-72
2022/06/28 10:01:36;;;;;;;3.47;1.50;;;;;;;29.27;40.48;98895.53;5065884;28;20351;-72
2022/06/28 10:04:02;;;;;;;2.25;0.90;;;;;;;28.17;41.90;98896.44;5065936;28;20032;-72
2022/06/28 10:06:28;;;;;;;2.35;0.98;;;;;;;28.87;41.12;98891.97;5065937;28;20316;-72
2022/06/28 10:08:54;;;;;;;1.90;1.00;;;;;;;28.22;43.57;98896.88;5065882;28;20401;-72
2022/06/28 10:11:19;;;;;;;1.95;1.15;;;;;;;27.54;41.41;98901.91;5065830;28;20024;-72
2022/06/28 10:16:44;;;;;;;2.15;0.85;;;;;;;27.10;39.48;98896.56;5065695;28;20047;-71
2022/06/28 10:19:11;;;;;;;1.45;0.90;;;;;;;27.69;41.60;98889.78;5065889;28;20096;-71
2022/06/28 10:21:42;;;;;;;1.40;0.90;;;;;;;28.06;40.66;98887.53;5065549;28;20043;-71
2022/06/28 10:24:07;;;;;;;3.35;0.80;;;;;;;27.09;41.13;98889.47;5065614;28;20070;-71
2022/06/28 10:26:33;;;;;;;5.78;1.08;;;;;;;27.02;41.04;98872.88;5065524;28;20040;-71
2022/06/28 10:29:07;;;;;;;2.33;0.75;;;;;;;28.18;40.86;98873.78;5065428;28;20042;-71
2022/06/28 10:31:41;;;;;;;0.93;0.82;;;;;;;28.66;39.31;98868.66;5065421;28;20312;-71
2022/06/28 10:34:10;;;;;;;1.65;0.82;;;;;;;28.87;39.55;98864.88;5065396;28;20224;-71
2022/06/28 10:36:51;;;;;;;4.25;1.05;;;;;;;28.54;38.76;98857.03;5065570;28;20024;-71
2022/06/28 10:39:19;;;;;;;5.67;1.10;;;;;;;27.37;38.23;98859.19;5065564;28;20017;-72
2022/06/28 10:41:49;;;;;;;3.38;1.17;;;;;;;27.03;39.23;98853.00;5065421;28;20323;-72
2022/06/28 10:44:47;;;;;;;1.15;0.65;;;;;;;27.46;39.47;98844.03;5065163;28;20025;-72
2022/06/28 10:47:15;;;;;;;3.92;1.20;;;;;;;28.19;41.10;98853.84;5064030;28;20039;-72
2022/06/28 10:49:50;;;;;;;1.02;0.55;;;;;;;29.10;39.22;98860.09;5065340;28;20084;-72
2022/06/28 10:52:25;;;;;;;2.60;0.73;;;;;;;27.08;39.46;98833.69;5065066;28;20025;-71
2022/06/28 10:54:51;;;;;;;2.08;0.73;;;;;;;27.53;39.26;98839.81;5064957;28;20193;-71
2022/06/28 10:57:39;;;;;;;1.00;0.80;;;;;;;27.84;38.55;98834.34;5064950;28;20031;-71
2022/06/28 11:00:05;;;;;;;1.27;0.75;;;;;;;28.47;41.45;98842.34;5064758;28;20031;-71
2022/06/28 11:02:52;;;;;;;4.63;0.73;;;;;;;27.24;38.75;98818.81;5064456;28;20048;-71
2022/06/28 11:05:20;;;;;;;1.35;0.80;;;;;;;27.16;38.80;98823.09;5064799;28;20031;-71
2022/06/28 11:08:02;;;;;;;3.47;0.65;;;;;;;27.03;38.18;98814.31;5064818;28;20020;-71
2022/06/28 11:10:30;;;;;;;1.48;1.05;;;;;;;27.25;38.30;98809.69;5064657;28;20335;-71
2022/06/28 11:13:21;;;;;;;1.40;0.77;;;;;;;27.70;38.32;98804.94;5064640;28;20028;-71
2022/06/28 11:15:46;;;;;;;1.45;0.88;;;;;;;27.24;39.57;98805.28;5064539;28;20029;-71
2022/06/28 11:18:16;;;;;;;4.32;0.90;;;;;;;26.70;38.64;98798.19;5064533;28;20063;-72
2022/06/28 11:20:42;;;;;;;1.55;0.65;;;;;;;26.47;38.11;98793.75;5064445;28;20024;-72
2022/06/28 11:23:08;;;;;;;2.35;0.60;;;;;;;27.11;39.86;98801.00;5064475;28;20143;-71
2022/06/28 11:28:21;;;;;;;1.33;0.60;;;;;;;26.56;39.84;98787.59;5064364;28;20051;-72
2022/06/28 11:30:46;;;;;;;1.77;0.65;;;;;;;26.38;39.86;98789.09;5064332;28;20029;-71
2022/06/28 11:33:12;;;;;;;1.92;0.80;;;;;;;26.63;42.00;98789.72;5064290;28;20088;-71
2022/06/28 11:35:38;;;;;;;1.33;0.68;;;;;;;26.56;40.41;98782.22;5064231;28;20317;-71
2022/06/28 11:38:09;;;;;;;1.80;0.70;;;;;;;25.95;39.74;98770.06;5064477;28;20400;-71
2022/06/28 11:40:42;;;;;;;;;;;;;;;26.34;41.48;98764.22;5064496;28;20021;-71
2022/06/28 11:43:08;;;;;;;;;;;;;;;25.87;40.56;98760.84;5064567;28;19905;-71
2022/06/28 11:45:45;;;;;;;1.20;0.50;;;;;;;26.18;41.78;98761.03;5064079;28;19905;-71